TAF Espana - 12 Dec 2017 - 2347 UTC - RocketRoute WX - rrwx.com
LEAL 121700Z 1218/1318 31008KT CAVOK TX17/1312Z TN04/1306Z TEMPO 1218/1220 VRB04KT TEMPO 1313/1318 24010KT LEAM 122000Z 1221/1321 02005KT 9999 SCT040 TX14/1314Z TN06/1307Z LEAS 122000Z 1221/1321 23009KT 9999 FEW060 TX16/1314Z TN07/1221Z TEMPO 1300/1321 25015G28KT TEMPO 1318/1321 3000 RA BKN014 LEBZ 121700Z 1218/1318 30003KT CAVOK TX13/1315Z TNM01/1308Z LEBL 121700Z 1218/1318 34008KT 9999 SCT030 TX14/1312Z TN03/1306Z PROB30 TEMPO 1218/1221 4000 SHRA BKN020 SCT030TCU TEMPO 1300/1310 34012G22KT BECMG 1310/1312 25010KT LEBB 121700Z 1218/1318 20009KT 9999 SCT040 TX15/1314Z TN04/1304Z PROB30 TEMPO 1218/1221 RA SHRA SCT030TCU TEMPO 1303/1318 20015G25KT LEGR 122000Z 1221/1321 VRB02KT CAVOK TX12/1315Z TNM01/1307Z LEIB 122000Z 1221/1321 33005KT 9999 FEW025 TX16/1309Z TN07/1306Z BECMG 1310/1312 24010KT TEMPO 1315/1321 24015G25KT LEJR 121700Z 1218/1318 02005KT CAVOK TX16/1315Z TN03/1307Z LELN 121700Z 1218/1303 25006KT 9999 BKN045 PROB40 TEMPO 1300/1303 3000 BR BKN014 LEMD 121700Z 1218/1324 VRB05KT CAVOK TX10/1314Z TNM01/1307Z PROB30 TEMPO 1318/1324 23010KT LEMG AMD 121913Z 1219/1318 30012KT CAVOK TX15/1313Z TN07/1301Z LEMH 122000Z 1221/1321 36010KT 9999 SCT030 TX15/1309Z TN07/1306Z PROB40 TEMPO 1221/1303 4000 SHRA BKN025 SCT030TCU BECMG 1300/1302 VRB03KT BECMG 1310/1312 24010KT TEMPO 1318/1321 24015G25KT LELC 121700Z 1218/1318 30005KT CAVOK TX15/1315Z TN06/1306Z LEPA 121700Z 1218/1318 VRB04KT 9999 SCT030 TX15/1312Z TN03/1306Z PROB30 TEMPO 1218/1220 31008KT TEMPO 1310/1312 24012KT LERS 122000Z 1221/1321 VRB04KT 9999 FEW040 TX14/1309Z TN01/1306Z BECMG 1307/1309 25010KT LEXJ 122000Z 1221/1321 22009KT 9999 SCT060 TX15/1314Z TN07/1221Z PROB40 TEMPO 1300/1309 22015G25KT TEMPO 1318/1321 3000 RA LEST AMD 121920Z 1219/1318 21009KT 8000 SCT010 BKN020 TX12/1314Z TN06/1307Z TEMPO 1219/1312 BKN010 TEMPO 1219/1312 3000 -RADZ BR BKN005 PROB40 TEMPO 1300/1312 0300 -RADZ BCFG BKN002 TEMPO 1312/1318 23015G25KT TEMPO 1312/1318 3000 RA BR BKN008 PROB40 TEMPO 1312/1318 1500 RA BCFG BKN004 LEZL 122000Z 1221/1321 03005KT CAVOK TX16/1315Z TN03/1308Z LEVC AMD 121803Z 1218/1318 28008KT CAVOK TX17/1312Z TN02/1306Z TEMPO 1218/1220 33012KT TEMPO 1300/1310 VRB04KT BECMG 1310/1312 26012KT LEVD 121700Z 1218/1318 VRB04KT CAVOK TX09/1315Z TN00/1302Z TEMPO 1305/1311 3000 BR PROB40 TEMPO 1305/1310 0100 FG FEW001 TEMPO 1312/1318 BKN011 TEMPO 1314/1318 23010KT LEVT 121700Z 1218/1318 22006KT 9999 SCT020 TX11/1314Z TN00/1305Z PROB40 TEMPO 1312/1318 23015G25KT LEZG 121700Z 1218/1318 28010KT 9999 SCT040 TX14/1313Z TN01/1306Z BECMG 1220/1222 23010KT TEMPO 1300/1318 24015G25KT GCLP 122000Z 1221/1321 02025KT 9999 BKN040 TX20/1314Z TN16/1306Z TEMPO 1221/1321 02025G35KT PROB30 TEMPO 1221/1310 4500 RA GCRR 122000Z 1221/1321 02020KT 9999 SCT040 TX20/1314Z TN14/1306Z TEMPO 1221/1318 02020G30KT GCXO AMD 122225Z 1222/1321 34015KT 9999 BKN012 TX16/1314Z TN11/1306Z TEMPO 1222/1310 34015G30KT BECMG 1310/1312 04015KT PROB30 TEMPO 1222/1318 4000 DZRA BCFG BKN007 GCTS AMD 122148Z 1221/1321 04020KT 9999 SCT040 TX23/1314Z TN15/1306Z TEMPO 1221/1321 05020G30KT PROB40 TEMPO 1221/1321 05030G43KT

RocketRoute WX - rrwx.com weather for pilots